To NAV CANADA Home Page Login to a new session Search on AWWS site Feedback and Comments Disclaimer Vers la page française équivalente Tips FAQ What's new on the site To the Forecasts and Observations / NOTAM section To "File a Flight Plan" website Publications and other links Update of the User's profile FIC Telephone Numbers My Weather Data Folder Route Weather Data Regional Weather Data Local Weather Data To the Forecasts and Observations / NOTAM section
Request Generated 03/04/2015 at 22:39:50 UTC . Weather information available at that time is displayed.

METAR/TAF

LONDON/ON    

METAR CYXU 042200Z 31005KT 15SM BKN044 BKN140 OVC200 M03/M07 A2990
RMK SC5AC1CI2 SLP139=
METAR CYXU 042100Z 30007KT 15SM SCT041 BKN150 OVC230 M02/M06 A2991
RMK SC3AC3CI2 SLP140=
METAR CYXU 042000Z 31008KT 12SM SCT030 OVC140 M02/M06 A2990 RMK
SC3AC5 PRESRR SLP136=

TAF CYXU 041741Z 0418/0518 28012G22KT P6SM BKN030
FM050200 30012G22KT P6SM FEW030
BECMG 0507/0509 34008KT
BECMG 0515/0517 31012KT
RMK NXT FCST BY 050000Z=
Your time UTC time
Weather data provided by Environment Canada and NAV CANADA